Terminal Aerodrome Forecast
Issued by NWS

Home | Current Version | Previous Version | Text Only | Print | Product List | Glossary On
Versions: 1 2 3 4 5 6 7 8 9 10 11 12 13
260
FTUS44 KCRP 130528
TAFLRD
TAF
KLRD 130528Z 1306/1406 36006KT P6SM SKC
     FM131000 VRB04KT P6SM SKC
     FM131800 17007KT P6SM SKC
      AMD NOT SKED=

USA.gov is the U.S. government's official web portal to all federal, state and local government web resources and services.